createdAt,value
2023-03-17T00:00:47.116Z,1.80
2023-03-17T00:03:27.187Z,2.23
2023-03-17T00:05:56.567Z,2.17
2023-03-17T00:08:28.703Z,2.40
2023-03-17T00:10:56.168Z,2.00
2023-03-17T00:13:23.932Z,2.07
2023-03-17T00:16:02.923Z,2.30
2023-03-17T00:18:31.704Z,2.10
2023-03-17T00:20:59.789Z,2.37
2023-03-17T00:23:27.107Z,2.00
2023-03-17T00:25:54.329Z,2.33
2023-03-17T00:28:26.005Z,2.20
2023-03-17T00:30:58.457Z,2.00
2023-03-17T00:33:29.982Z,2.13
2023-03-17T00:35:58.670Z,2.27
2023-03-17T00:38:25.944Z,2.37
2023-03-17T00:40:53.295Z,1.90
2023-03-17T00:43:20.623Z,2.23
2023-03-17T00:45:48.248Z,2.10
2023-03-17T00:48:20.649Z,2.20
2023-03-17T00:50:50.183Z,2.13
2023-03-17T00:53:21.544Z,2.83
2023-03-17T00:55:49.278Z,2.40
2023-03-17T00:58:32.534Z,2.37
2023-03-17T01:01:00.846Z,2.47
2023-03-17T01:03:28.960Z,2.40
2023-03-17T01:06:00.407Z,2.43
2023-03-17T01:08:30.113Z,2.37
2023-03-17T01:10:57.893Z,2.87
2023-03-17T01:13:25.534Z,2.90
2023-03-17T01:15:54.693Z,2.70
2023-03-17T01:18:23.349Z,2.17
2023-03-17T01:20:51.579Z,2.50
2023-03-17T01:23:18.880Z,2.20
2023-03-17T01:25:45.975Z,2.70
2023-03-17T01:28:19.088Z,2.50
2023-03-17T01:30:46.961Z,2.80
2023-03-17T01:33:14.735Z,2.37
2023-03-17T01:35:43.818Z,2.63
2023-03-17T01:38:14.922Z,2.93
2023-03-17T01:40:50.535Z,2.90
2023-03-17T01:43:29.347Z,2.90
2023-03-17T01:46:33.948Z,3.13
2023-03-17T01:49:17.364Z,2.80
2023-03-17T01:52:18.015Z,2.83
2023-03-17T01:55:16.012Z,3.10
2023-03-17T01:57:54.685Z,3.37
2023-03-17T02:00:25.014Z,2.60
2023-03-17T02:02:56.161Z,3.20
2023-03-17T02:05:28.468Z,3.23
2023-03-17T02:07:56.865Z,3.00
2023-03-17T02:10:28.558Z,2.90
2023-03-17T02:13:03.873Z,3.13
2023-03-17T02:15:48.718Z,3.47
2023-03-17T02:18:20.132Z,3.17
2023-03-17T02:20:46.985Z,3.50
2023-03-17T02:23:24.886Z,3.97
2023-03-17T02:25:53.837Z,3.27
2023-03-17T02:28:29.910Z,3.60
2023-03-17T02:30:57.806Z,3.30
2023-03-17T02:33:25.258Z,3.47
2023-03-17T02:35:52.872Z,3.07
2023-03-17T02:38:19.968Z,3.70
2023-03-17T02:40:47.047Z,3.70
2023-03-17T02:43:14.145Z,3.70
2023-03-17T02:45:41.609Z,3.60
2023-03-17T02:48:09.135Z,3.40
2023-03-17T02:50:36.623Z,3.47
2023-03-17T02:53:03.841Z,3.70
2023-03-17T02:55:31.710Z,3.23
2023-03-17T02:57:58.922Z,3.93
2023-03-17T03:00:26.444Z,3.10
2023-03-17T03:02:53.561Z,3.63
2023-03-17T03:05:20.947Z,4.13
2023-03-17T03:07:51.363Z,3.50
2023-03-17T03:10:18.897Z,3.23
2023-03-17T03:12:46.557Z,3.60
2023-03-17T03:15:14.569Z,3.43
2023-03-17T03:17:42.020Z,3.27
2023-03-17T03:20:11.469Z,3.27
2023-03-17T03:22:38.927Z,3.60
2023-03-17T03:25:08.630Z,3.77
2023-03-17T03:27:36.241Z,3.33
2023-03-17T03:30:04.240Z,3.60
2023-03-17T03:32:31.564Z,3.33
2023-03-17T03:34:58.733Z,3.83
2023-03-17T03:37:25.965Z,3.43
2023-03-17T03:39:53.118Z,3.47
2023-03-17T03:42:20.411Z,3.50
2023-03-17T03:44:47.455Z,3.30
2023-03-17T03:47:14.569Z,3.33
2023-03-17T03:49:41.710Z,3.30
2023-03-17T03:52:11.432Z,3.50
2023-03-17T03:54:38.448Z,3.30
2023-03-17T03:57:05.939Z,3.17
2023-03-17T03:59:33.030Z,3.73
2023-03-17T04:02:00.107Z,3.40
2023-03-17T04:04:27.203Z,3.27
2023-03-17T04:06:54.329Z,2.90
2023-03-17T04:09:21.417Z,3.13
2023-03-17T04:11:48.451Z,3.10
2023-03-17T04:14:15.548Z,3.63
2023-03-17T04:16:44.685Z,3.17
2023-03-17T04:19:11.757Z,2.90
2023-03-17T04:21:41.450Z,3.93
2023-03-17T04:24:11.824Z,3.33
2023-03-17T04:26:39.369Z,3.57
2023-03-17T04:29:08.803Z,3.00
2023-03-17T04:31:36.817Z,3.70
2023-03-17T04:34:03.910Z,3.60
2023-03-17T04:36:30.974Z,3.70
2023-03-17T04:38:58.215Z,3.33
2023-03-17T04:41:25.465Z,3.50
2023-03-17T04:43:52.492Z,3.33
2023-03-17T04:46:19.539Z,3.20
2023-03-17T04:48:46.795Z,3.27
2023-03-17T04:51:13.893Z,2.93
2023-03-17T04:53:41.018Z,2.90
2023-03-17T04:56:08.430Z,3.23
2023-03-17T04:58:36.026Z,3.40
2023-03-17T05:01:03.662Z,3.33
2023-03-17T05:03:33.165Z,3.10
2023-03-17T05:06:02.422Z,3.27
2023-03-17T05:08:30.421Z,3.27
2023-03-17T05:10:58.499Z,3.00
2023-03-17T05:13:28.511Z,3.17
2023-03-17T05:15:57.166Z,3.67
2023-03-17T05:18:26.221Z,3.27
2023-03-17T05:20:54.151Z,3.53
2023-03-17T05:23:27.743Z,3.17
2023-03-17T05:25:54.830Z,3.47
2023-03-17T05:28:22.832Z,2.97
2023-03-17T05:30:53.427Z,3.03
2023-03-17T05:33:21.663Z,3.30
2023-03-17T05:35:49.402Z,3.37
2023-03-17T05:38:16.992Z,3.30
2023-03-17T05:40:45.487Z,3.30
2023-03-17T05:43:14.152Z,3.27
2023-03-17T05:45:41.365Z,3.50
2023-03-17T05:48:08.942Z,2.73
2023-03-17T05:50:36.450Z,3.47
2023-03-17T05:53:03.716Z,2.73
2023-03-17T05:55:36.422Z,2.90
2023-03-17T05:58:05.065Z,3.33
2023-03-17T06:00:32.690Z,2.93
2023-03-17T06:03:00.007Z,2.90
2023-03-17T06:05:27.180Z,3.67
2023-03-17T06:07:56.504Z,3.13
2023-03-17T06:10:24.785Z,3.07
2023-03-17T06:12:55.016Z,3.10
2023-03-17T06:15:22.500Z,3.30
2023-03-17T06:17:51.774Z,2.70
2023-03-17T06:20:19.695Z,3.37
2023-03-17T06:23:03.387Z,3.33
2023-03-17T06:25:33.463Z,3.10
2023-03-17T06:28:02.829Z,3.03
2023-03-17T06:30:32.962Z,3.13
2023-03-17T06:33:01.403Z,3.43
2023-03-17T06:35:30.049Z,3.13
2023-03-17T06:37:57.871Z,3.40
2023-03-17T06:40:25.108Z,3.37
2023-03-17T06:42:52.308Z,3.33
2023-03-17T06:45:19.488Z,3.03
2023-03-17T06:47:48.728Z,3.47
2023-03-17T06:50:16.147Z,3.20
2023-03-17T06:52:45.028Z,3.10
2023-03-17T06:55:14.087Z,2.90
2023-03-17T06:57:41.784Z,3.37
2023-03-17T07:00:12.549Z,3.20
2023-03-17T07:02:42.402Z,3.20
2023-03-17T07:05:09.877Z,3.60
2023-03-17T07:07:37.280Z,3.50
2023-03-17T07:10:05.652Z,3.43
2023-03-17T07:12:33.179Z,3.70
2023-03-17T07:15:01.275Z,3.17
2023-03-17T07:17:29.080Z,3.40
2023-03-17T07:19:56.526Z,3.20
2023-03-17T07:22:23.578Z,3.17
2023-03-17T07:24:51.865Z,4.23
2023-03-17T07:27:22.991Z,3.20
2023-03-17T07:29:50.354Z,2.93
2023-03-17T07:32:17.472Z,2.83
2023-03-17T07:34:44.753Z,3.17
2023-03-17T07:37:12.479Z,3.13
2023-03-17T07:39:40.091Z,3.30
2023-03-17T07:42:07.275Z,2.97
2023-03-17T07:44:34.597Z,2.87
2023-03-17T07:47:01.658Z,3.30
2023-03-17T07:49:40.746Z,3.13
2023-03-17T07:52:11.037Z,3.20
2023-03-17T07:54:42.161Z,2.97
2023-03-17T07:57:10.883Z,3.63
2023-03-17T07:59:39.814Z,3.00
2023-03-17T08:02:07.294Z,3.40
2023-03-17T08:04:35.087Z,3.60
2023-03-17T08:07:04.143Z,3.67
2023-03-17T08:09:31.943Z,3.13
2023-03-17T08:12:01.472Z,3.23
2023-03-17T08:14:32.020Z,3.07
2023-03-17T08:17:00.723Z,3.13
2023-03-17T08:19:30.554Z,3.20
2023-03-17T08:21:58.150Z,3.20
2023-03-17T08:24:27.008Z,3.10
2023-03-17T08:26:54.184Z,3.20
2023-03-17T08:29:30.539Z,3.63
2023-03-17T08:31:58.051Z,3.40
2023-03-17T08:34:26.326Z,2.80
2023-03-17T08:36:56.548Z,2.97
2023-03-17T08:39:24.406Z,3.40
2023-03-17T08:41:59.353Z,3.30
2023-03-17T08:44:27.381Z,3.10
2023-03-17T08:47:00.937Z,3.23
2023-03-17T08:49:28.500Z,2.90
2023-03-17T08:51:57.863Z,2.77
2023-03-17T08:54:24.997Z,3.00
2023-03-17T08:56:52.658Z,2.80
2023-03-17T08:59:19.740Z,2.57
2023-03-17T09:01:52.666Z,2.80
2023-03-17T09:04:19.910Z,2.53
2023-03-17T09:07:02.297Z,2.73
2023-03-17T09:09:30.972Z,2.70
2023-03-17T09:12:03.051Z,2.93
2023-03-17T09:14:35.310Z,3.00
2023-03-17T09:17:11.160Z,3.20
2023-03-17T09:19:39.313Z,2.73
2023-03-17T09:22:06.778Z,2.50
2023-03-17T09:24:36.389Z,2.20
2023-03-17T09:27:06.405Z,2.73
2023-03-17T09:29:34.012Z,2.80
2023-03-17T09:32:02.222Z,2.63
2023-03-17T09:34:29.671Z,2.67
2023-03-17T09:36:59.734Z,3.10
2023-03-17T09:39:27.471Z,2.67
2023-03-17T09:42:21.270Z,2.50
2023-03-17T09:45:33.606Z,2.70
2023-03-17T09:49:08.567Z,2.57
2023-03-17T09:51:35.959Z,2.40
2023-03-17T09:54:19.439Z,1.90
2023-03-17T09:57:45.418Z,2.40
2023-03-17T10:00:18.385Z,2.27
2023-03-17T10:02:47.625Z,2.33
2023-03-17T10:05:21.884Z,2.77
2023-03-17T10:08:29.443Z,2.63
2023-03-17T10:11:41.997Z,2.47
2023-03-17T10:14:38.287Z,2.50
2023-03-17T10:17:35.776Z,2.17
2023-03-17T10:20:18.751Z,2.80
2023-03-17T10:22:59.294Z,2.23
2023-03-17T10:25:33.439Z,2.20
2023-03-17T10:28:36.400Z,2.13
2023-03-17T10:31:30.678Z,2.50
2023-03-17T10:34:21.569Z,2.60
2023-03-17T10:37:05.626Z,2.53
2023-03-17T10:39:44.244Z,3.00
2023-03-17T10:42:30.572Z,2.03
2023-03-17T10:45:32.446Z,2.20
2023-03-17T10:48:04.219Z,1.83
2023-03-17T10:50:35.893Z,1.90
2023-03-17T10:53:29.159Z,2.27
2023-03-17T10:56:26.563Z,2.27
2023-03-17T10:58:55.495Z,2.30
2023-03-17T11:01:42.651Z,2.20
2023-03-17T11:04:42.403Z,2.27
2023-03-17T11:07:20.303Z,2.43
2023-03-17T11:09:52.514Z,2.07
2023-03-17T11:12:29.973Z,2.17
2023-03-17T11:15:03.974Z,3.63
2023-03-17T11:17:57.870Z,2.17
2023-03-17T11:20:48.385Z,2.20
2023-03-17T11:23:49.833Z,2.23
2023-03-17T11:26:48.457Z,2.03
2023-03-17T11:30:30.639Z,2.00
2023-03-17T11:33:40.175Z,2.00
2023-03-17T11:37:16.260Z,1.77
2023-03-17T11:40:16.435Z,1.80
2023-03-17T11:43:08.036Z,2.07
2023-03-17T11:46:04.694Z,1.93
2023-03-17T11:49:10.034Z,2.10
2023-03-17T11:52:19.533Z,2.00
2023-03-17T11:55:24.603Z,2.00
2023-03-17T11:58:05.456Z,2.10
2023-03-17T12:00:57.102Z,1.80
2023-03-17T12:03:50.591Z,2.20
2023-03-17T12:06:29.519Z,1.97
2023-03-17T12:09:26.917Z,2.10
2023-03-17T12:11:57.015Z,1.70
2023-03-17T12:14:30.710Z,2.17
2023-03-17T12:17:22.454Z,1.93
2023-03-17T12:20:42.209Z,1.93
2023-03-17T12:23:33.197Z,2.00
2023-03-17T12:26:19.599Z,2.17
2023-03-17T12:29:03.284Z,1.97
2023-03-17T12:31:39.270Z,1.37
2023-03-17T12:35:02.228Z,1.80
2023-03-17T12:37:30.166Z,1.60
2023-03-17T12:40:18.832Z,1.70
2023-03-17T12:43:46.752Z,2.17
2023-03-17T12:46:53.044Z,1.60
2023-03-17T12:49:57.022Z,1.90
2023-03-17T12:53:12.496Z,1.90
2023-03-17T12:55:40.497Z,1.97
2023-03-17T12:58:41.264Z,1.63
2023-03-17T13:01:33.878Z,1.70
2023-03-17T13:04:04.037Z,1.60
2023-03-17T13:07:12.452Z,2.00
2023-03-17T13:09:54.472Z,1.57
2023-03-17T13:12:40.026Z,1.40
2023-03-17T13:15:39.708Z,1.50
2023-03-17T13:18:13.696Z,1.83
2023-03-17T13:20:56.884Z,1.47
2023-03-17T13:23:57.851Z,1.93
2023-03-17T13:27:01.717Z,1.70
2023-03-17T13:29:35.045Z,1.67
2023-03-17T13:32:17.094Z,1.80
2023-03-17T13:34:56.082Z,1.80
2023-03-17T13:37:53.843Z,1.40
2023-03-17T13:41:00.877Z,1.50
2023-03-17T13:43:30.932Z,1.37
2023-03-17T13:46:41.864Z,1.60
2023-03-17T13:49:32.371Z,1.40
2023-03-17T13:52:25.661Z,1.70
2023-03-17T13:55:36.283Z,1.67
2023-03-17T13:58:11.644Z,1.80
2023-03-17T14:00:51.790Z,1.50
2023-03-17T14:03:35.254Z,2.47
2023-03-17T14:06:11.951Z,1.57
2023-03-17T14:08:51.920Z,1.50
2023-03-17T14:11:33.508Z,1.37
2023-03-17T14:14:37.078Z,1.33
2023-03-17T14:17:35.693Z,1.67
2023-03-17T14:20:24.795Z,1.77
2023-03-17T14:23:02.694Z,1.93
2023-03-17T14:25:39.145Z,1.70
2023-03-17T14:28:23.353Z,1.60
2023-03-17T14:31:01.878Z,1.40
2023-03-17T14:33:33.601Z,1.60
2023-03-17T14:36:06.237Z,1.67
2023-03-17T14:38:40.024Z,1.40
2023-03-17T14:41:22.562Z,1.50
2023-03-17T14:43:52.541Z,1.57
2023-03-17T14:46:24.354Z,1.80
2023-03-17T14:49:18.400Z,1.80
2023-03-17T14:51:49.592Z,1.60
2023-03-17T14:54:35.771Z,1.80
2023-03-17T14:57:15.717Z,1.80
2023-03-17T14:59:56.208Z,1.50
2023-03-17T15:02:38.246Z,1.67
2023-03-17T15:05:40.222Z,1.80
2023-03-17T15:08:34.563Z,1.80
2023-03-17T15:11:06.085Z,1.77
2023-03-17T15:13:37.554Z,1.77
2023-03-17T15:16:33.496Z,1.80
2023-03-17T15:19:29.073Z,1.70
2023-03-17T15:22:00.430Z,1.70
2023-03-17T15:25:04.428Z,1.70
2023-03-17T15:27:32.370Z,1.40
2023-03-17T15:29:59.603Z,1.50
2023-03-17T15:32:28.776Z,1.93
2023-03-17T15:34:57.161Z,1.30
2023-03-17T15:37:33.915Z,1.57
2023-03-17T15:40:03.516Z,1.30
2023-03-17T15:42:34.728Z,1.50
2023-03-17T15:45:03.642Z,1.50
2023-03-17T15:47:36.692Z,1.20
2023-03-17T15:50:31.361Z,1.10
2023-03-17T15:52:58.841Z,1.30
2023-03-17T15:55:31.335Z,1.40
2023-03-17T15:58:02.034Z,1.60
2023-03-17T16:00:30.516Z,1.57
2023-03-17T16:03:06.588Z,1.40
2023-03-17T16:05:35.972Z,1.37
2023-03-17T16:08:03.072Z,1.13
2023-03-17T16:10:33.164Z,1.00
2023-03-17T16:13:00.633Z,1.43
2023-03-17T16:15:32.213Z,1.30
2023-03-17T16:18:04.848Z,1.60
2023-03-17T16:20:47.864Z,1.37
2023-03-17T16:23:27.454Z,1.43
2023-03-17T16:26:07.898Z,1.30
2023-03-17T16:28:41.451Z,1.60
2023-03-17T16:31:30.663Z,1.57
2023-03-17T16:34:01.442Z,1.50
2023-03-17T16:36:28.741Z,1.63
2023-03-17T16:38:56.032Z,1.53
2023-03-17T16:41:27.559Z,1.33
2023-03-17T16:44:01.715Z,1.43
2023-03-17T16:46:35.861Z,1.73
2023-03-17T16:49:04.140Z,1.47
2023-03-17T16:51:32.464Z,1.30
2023-03-17T16:53:59.640Z,1.80
2023-03-17T16:56:27.872Z,2.30
2023-03-17T16:58:55.155Z,2.40
2023-03-17T17:01:27.211Z,2.13
2023-03-17T17:03:55.298Z,2.00
2023-03-17T17:06:23.691Z,2.10
2023-03-17T17:08:52.082Z,1.60
2023-03-17T17:11:21.160Z,1.57
2023-03-17T17:13:50.170Z,1.90
2023-03-17T17:16:34.306Z,2.20
2023-03-17T17:19:04.166Z,1.80
2023-03-17T17:21:32.982Z,1.80
2023-03-17T17:24:00.331Z,2.23
2023-03-17T17:26:27.406Z,1.73
2023-03-17T17:28:54.711Z,1.97
2023-03-17T17:31:21.824Z,2.03
2023-03-17T17:33:49.032Z,1.50
2023-03-17T17:36:17.493Z,1.53
2023-03-17T17:38:45.335Z,1.83
2023-03-17T17:41:14.065Z,2.17
2023-03-17T17:43:41.286Z,1.80
2023-03-17T17:46:22.820Z,1.87
2023-03-17T17:48:50.173Z,2.00
2023-03-17T17:51:17.526Z,1.87
2023-03-17T17:53:44.823Z,2.13
2023-03-17T17:56:16.402Z,2.00
2023-03-17T17:58:44.462Z,2.10
2023-03-17T18:01:19.898Z,2.03
2023-03-17T18:03:47.077Z,2.37
2023-03-17T18:06:14.631Z,2.40
2023-03-17T18:08:43.411Z,2.80
2023-03-17T18:11:11.216Z,2.10
2023-03-17T18:13:39.055Z,2.23
2023-03-17T18:16:09.892Z,2.07
2023-03-17T18:18:40.532Z,2.10
2023-03-17T18:21:08.070Z,2.23
2023-03-17T18:23:38.603Z,1.97
2023-03-17T18:26:06.368Z,2.23
2023-03-17T18:28:34.062Z,1.77
2023-03-17T18:31:12.916Z,2.10
2023-03-17T18:33:42.108Z,2.70
2023-03-17T18:36:11.262Z,2.30
2023-03-17T18:38:38.833Z,2.33
2023-03-17T18:41:08.037Z,2.53
2023-03-17T18:43:35.314Z,2.30
2023-03-17T18:46:02.439Z,2.30
2023-03-17T18:48:29.590Z,2.40
2023-03-17T18:50:56.666Z,2.10
2023-03-17T18:53:23.808Z,2.37
2023-03-17T18:55:50.924Z,2.70
2023-03-17T18:58:20.061Z,2.63
2023-03-17T19:00:49.581Z,2.40
2023-03-17T19:03:17.249Z,2.07
2023-03-17T19:05:44.426Z,2.30
2023-03-17T19:08:11.562Z,2.70
2023-03-17T19:10:42.153Z,2.40
2023-03-17T19:13:10.337Z,2.80
2023-03-17T19:15:37.462Z,2.63
2023-03-17T19:18:04.772Z,2.23
2023-03-17T19:20:33.734Z,2.87
2023-03-17T19:23:01.995Z,2.40
2023-03-17T19:25:31.555Z,2.40
2023-03-17T19:27:59.138Z,2.60
2023-03-17T19:30:26.253Z,2.80
2023-03-17T19:32:54.488Z,2.77
2023-03-17T19:35:22.170Z,2.80
2023-03-17T19:37:49.237Z,3.07
2023-03-17T19:40:16.792Z,3.07
2023-03-17T19:42:43.810Z,2.70
2023-03-17T19:45:11.585Z,3.30
2023-03-17T19:47:38.675Z,2.97
2023-03-17T19:50:07.064Z,2.97
2023-03-17T19:52:34.202Z,2.80
2023-03-17T19:55:01.368Z,3.10
2023-03-17T19:57:28.437Z,3.00
2023-03-17T19:59:55.523Z,3.17
2023-03-17T20:02:22.573Z,3.63
2023-03-17T20:04:52.252Z,3.63
2023-03-17T20:07:19.445Z,3.17
2023-03-17T20:09:47.920Z,3.80
2023-03-17T20:12:15.727Z,3.37
2023-03-17T20:14:42.813Z,3.43
2023-03-17T20:17:09.961Z,3.60
2023-03-17T20:19:39.227Z,3.10
2023-03-17T20:22:12.851Z,3.70
2023-03-17T20:24:39.921Z,3.67
2023-03-17T20:27:08.340Z,3.90
2023-03-17T20:29:35.432Z,3.60
2023-03-17T20:32:02.791Z,3.90
2023-03-17T20:34:31.697Z,3.97
2023-03-17T20:36:58.793Z,3.70
2023-03-17T20:39:26.207Z,3.70
2023-03-17T20:41:54.063Z,3.60
2023-03-17T20:44:21.536Z,3.67
2023-03-17T20:46:48.655Z,3.70
2023-03-17T20:49:17.284Z,4.10
2023-03-17T20:51:46.210Z,4.03
2023-03-17T20:54:13.478Z,4.10
2023-03-17T20:56:40.709Z,4.17
2023-03-17T20:59:09.633Z,4.03
2023-03-17T21:01:38.661Z,3.70
2023-03-17T21:04:08.882Z,3.87
2023-03-17T21:06:39.573Z,3.87
2023-03-17T21:09:06.624Z,3.93
2023-03-17T21:11:33.989Z,4.03
2023-03-17T21:14:03.271Z,3.83
2023-03-17T21:16:30.964Z,3.93
2023-03-17T21:18:58.787Z,3.83
2023-03-17T21:21:27.023Z,3.43
2023-03-17T21:23:55.625Z,3.67
2023-03-17T21:26:22.957Z,4.00
2023-03-17T21:28:50.371Z,3.87
2023-03-17T21:31:17.818Z,3.83
2023-03-17T21:33:48.362Z,3.80
2023-03-17T21:36:16.153Z,4.03
2023-03-17T21:38:43.645Z,4.13
2023-03-17T21:41:36.347Z,3.77
2023-03-17T21:44:05.055Z,3.73
2023-03-17T21:46:33.488Z,4.13
2023-03-17T21:49:01.387Z,4.27
2023-03-17T21:51:28.627Z,3.70
2023-03-17T21:53:57.602Z,3.73
2023-03-17T21:56:24.834Z,3.53
2023-03-17T21:58:55.711Z,3.93
2023-03-17T22:01:23.037Z,3.73
2023-03-17T22:03:52.037Z,3.50
2023-03-17T22:06:20.228Z,3.40
2023-03-17T22:08:48.667Z,3.83
2023-03-17T22:11:19.184Z,3.50
2023-03-17T22:13:47.135Z,3.87
2023-03-17T22:16:16.347Z,3.73
2023-03-17T22:18:44.006Z,3.60
2023-03-17T22:21:11.508Z,3.87
2023-03-17T22:23:42.319Z,3.83
2023-03-17T22:26:20.663Z,3.70
2023-03-17T22:28:50.166Z,4.00
2023-03-17T22:31:25.442Z,3.97
2023-03-17T22:33:56.667Z,3.40
2023-03-17T22:36:25.565Z,3.83
2023-03-17T22:38:53.589Z,3.57
2023-03-17T22:41:25.098Z,3.97
2023-03-17T22:43:52.154Z,3.97
2023-03-17T22:46:23.570Z,3.47
2023-03-17T22:48:54.533Z,3.63
2023-03-17T22:51:26.469Z,3.87
2023-03-17T22:53:54.921Z,3.90
2023-03-17T22:56:22.229Z,4.00
2023-03-17T22:58:49.566Z,3.63
2023-03-17T23:01:22.301Z,3.70
2023-03-17T23:03:50.185Z,4.13
2023-03-17T23:06:17.990Z,3.57
2023-03-17T23:08:47.004Z,4.00
2023-03-17T23:11:24.550Z,3.90
2023-03-17T23:13:55.309Z,3.90
2023-03-17T23:16:22.771Z,3.73
2023-03-17T23:18:50.783Z,4.00
2023-03-17T23:21:29.193Z,3.57
2023-03-17T23:23:59.594Z,4.30
2023-03-17T23:26:28.217Z,3.83
2023-03-17T23:28:55.772Z,4.00
2023-03-17T23:31:23.565Z,3.97
2023-03-17T23:33:51.464Z,3.93
2023-03-17T23:36:19.132Z,3.77
2023-03-17T23:38:47.365Z,3.70
2023-03-17T23:41:15.369Z,4.03
2023-03-17T23:43:44.006Z,3.97
2023-03-17T23:46:13.407Z,3.77
2023-03-17T23:48:42.968Z,3.43
2023-03-17T23:51:12.438Z,3.70
2023-03-17T23:53:40.347Z,4.13
2023-03-17T23:56:08.682Z,4.23
2023-03-17T23:58:36.164Z,3.60
